sensor_id;sensor_type;location;lat;lon;timestamp;P1;durP1;ratioP1;P2;durP2;ratioP2
11123;SDS011;5616;42.692;23.312;2022-09-20T00:00:42;0.80;;;0.80;;
11123;SDS011;5616;42.692;23.312;2022-09-20T00:03:10;1.37;;;1.23;;
11123;SDS011;5616;42.692;23.312;2022-09-20T00:05:39;1.20;;;1.10;;
11123;SDS011;5616;42.692;23.312;2022-09-20T00:08:09;1.00;;;1.00;;
11123;SDS011;5616;42.692;23.312;2022-09-20T00:10:38;1.20;;;1.10;;
11123;SDS011;5616;42.692;23.312;2022-09-20T00:13:08;1.37;;;1.00;;
11123;SDS011;5616;42.692;23.312;2022-09-20T00:15:39;1.40;;;1.30;;
11123;SDS011;5616;42.692;23.312;2022-09-20T00:18:08;1.20;;;1.13;;
11123;SDS011;5616;42.692;23.312;2022-09-20T00:20:36;1.37;;;1.27;;
11123;SDS011;5616;42.692;23.312;2022-09-20T00:23:09;1.00;;;1.00;;
11123;SDS011;5616;42.692;23.312;2022-09-20T00:25:36;1.00;;;1.00;;
11123;SDS011;5616;42.692;23.312;2022-09-20T00:28:03;1.10;;;1.00;;
11123;SDS011;5616;42.692;23.312;2022-09-20T00:30:30;1.10;;;1.00;;
11123;SDS011;5616;42.692;23.312;2022-09-20T00:32:58;1.00;;;1.00;;
11123;SDS011;5616;42.692;23.312;2022-09-20T00:35:27;0.90;;;0.90;;
11123;SDS011;5616;42.692;23.312;2022-09-20T00:37:54;1.10;;;1.10;;
11123;SDS011;5616;42.692;23.312;2022-09-20T00:40:22;0.90;;;0.90;;
11123;SDS011;5616;42.692;23.312;2022-09-20T00:42:51;0.90;;;0.90;;
11123;SDS011;5616;42.692;23.312;2022-09-20T00:45:19;1.10;;;1.00;;
11123;SDS011;5616;42.692;23.312;2022-09-20T00:47:48;0.90;;;0.90;;
11123;SDS011;5616;42.692;23.312;2022-09-20T00:50:28;1.50;;;1.10;;
11123;SDS011;5616;42.692;23.312;2022-09-20T00:53:00;1.37;;;1.10;;
11123;SDS011;5616;42.692;23.312;2022-09-20T00:55:30;1.47;;;0.90;;
11123;SDS011;5616;42.692;23.312;2022-09-20T00:57:58;1.00;;;1.00;;
11123;SDS011;5616;42.692;23.312;2022-09-20T01:00:26;1.00;;;1.00;;
11123;SDS011;5616;42.692;23.312;2022-09-20T01:02:54;1.13;;;0.83;;
11123;SDS011;5616;42.692;23.312;2022-09-20T01:05:24;0.90;;;0.90;;
11123;SDS011;5616;42.692;23.312;2022-09-20T01:07:53;0.90;;;0.90;;
11123;SDS011;5616;42.692;23.312;2022-09-20T01:10:21;0.90;;;0.90;;
11123;SDS011;5616;42.692;23.312;2022-09-20T01:12:48;1.30;;;1.20;;
11123;SDS011;5616;42.692;23.312;2022-09-20T01:15:17;1.33;;;1.23;;
11123;SDS011;5616;42.692;23.312;2022-09-20T01:17:46;1.07;;;1.00;;
11123;SDS011;5616;42.692;23.312;2022-09-20T01:20:18;1.33;;;1.23;;
11123;SDS011;5616;42.692;23.312;2022-09-20T01:22:55;2.60;;;1.10;;
11123;SDS011;5616;42.692;23.312;2022-09-20T01:25:55;1.50;;;1.40;;
11123;SDS011;5616;42.692;23.312;2022-09-20T01:28:41;1.70;;;1.50;;
11123;SDS011;5616;42.692;23.312;2022-09-20T01:31:13;1.33;;;1.23;;
11123;SDS011;5616;42.692;23.312;2022-09-20T01:33:43;1.40;;;1.30;;
11123;SDS011;5616;42.692;23.312;2022-09-20T01:36:15;1.40;;;1.30;;
11123;SDS011;5616;42.692;23.312;2022-09-20T01:38:48;1.40;;;1.23;;
11123;SDS011;5616;42.692;23.312;2022-09-20T01:41:23;1.27;;;1.17;;
11123;SDS011;5616;42.692;23.312;2022-09-20T01:43:58;1.10;;;1.10;;
11123;SDS011;5616;42.692;23.312;2022-09-20T01:46:32;1.17;;;1.10;;
11123;SDS011;5616;42.692;23.312;2022-09-20T01:49:04;1.30;;;1.20;;
11123;SDS011;5616;42.692;23.312;2022-09-20T01:51:51;1.43;;;1.33;;
11123;SDS011;5616;42.692;23.312;2022-09-20T01:54:48;1.50;;;1.40;;
11123;SDS011;5616;42.692;23.312;2022-09-20T01:57:40;1.17;;;1.07;;
11123;SDS011;5616;42.692;23.312;2022-09-20T02:00:23;1.40;;;1.30;;
11123;SDS011;5616;42.692;23.312;2022-09-20T02:06:01;1.30;;;1.20;;
11123;SDS011;5616;42.692;23.312;2022-09-20T02:09:02;1.50;;;1.40;;
11123;SDS011;5616;42.692;23.312;2022-09-20T02:12:14;2.67;;;1.37;;
11123;SDS011;5616;42.692;23.312;2022-09-20T02:14:52;1.50;;;1.40;;
11123;SDS011;5616;42.692;23.312;2022-09-20T02:17:31;1.43;;;1.33;;
11123;SDS011;5616;42.692;23.312;2022-09-20T02:20:07;1.63;;;1.53;;
11123;SDS011;5616;42.692;23.312;2022-09-20T02:22:47;2.20;;;1.53;;
11123;SDS011;5616;42.692;23.312;2022-09-20T02:28:44;1.60;;;1.50;;
11123;SDS011;5616;42.692;23.312;2022-09-20T02:31:22;1.40;;;1.30;;
11123;SDS011;5616;42.692;23.312;2022-09-20T02:34:06;1.50;;;1.40;;
11123;SDS011;5616;42.692;23.312;2022-09-20T02:36:53;1.70;;;1.60;;
11123;SDS011;5616;42.692;23.312;2022-09-20T02:39:33;1.93;;;1.60;;
11123;SDS011;5616;42.692;23.312;2022-09-20T02:42:06;1.70;;;1.60;;
11123;SDS011;5616;42.692;23.312;2022-09-20T02:47:34;2.07;;;1.60;;
11123;SDS011;5616;42.692;23.312;2022-09-20T02:50:17;2.00;;;1.60;;
11123;SDS011;5616;42.692;23.312;2022-09-20T02:52:56;1.90;;;1.80;;
11123;SDS011;5616;42.692;23.312;2022-09-20T02:55:34;1.97;;;1.70;;
11123;SDS011;5616;42.692;23.312;2022-09-20T02:58:08;2.20;;;1.93;;
11123;SDS011;5616;42.692;23.312;2022-09-20T03:00:51;2.67;;;1.93;;
11123;SDS011;5616;42.692;23.312;2022-09-20T03:03:30;2.10;;;1.90;;
11123;SDS011;5616;42.692;23.312;2022-09-20T03:06:07;2.00;;;1.90;;
11123;SDS011;5616;42.692;23.312;2022-09-20T03:08:44;2.20;;;2.00;;
11123;SDS011;5616;42.692;23.312;2022-09-20T03:11:18;4.60;;;2.20;;
11123;SDS011;5616;42.692;23.312;2022-09-20T03:16:43;2.30;;;2.10;;
11123;SDS011;5616;42.692;23.312;2022-09-20T03:19:31;2.63;;;2.00;;
11123;SDS011;5616;42.692;23.312;2022-09-20T03:22:12;2.30;;;2.10;;
11123;SDS011;5616;42.692;23.312;2022-09-20T03:24:51;2.20;;;2.00;;
11123;SDS011;5616;42.692;23.312;2022-09-20T03:27:31;2.27;;;2.10;;
11123;SDS011;5616;42.692;23.312;2022-09-20T03:30:13;2.40;;;2.03;;
11123;SDS011;5616;42.692;23.312;2022-09-20T03:32:51;2.97;;;2.37;;
11123;SDS011;5616;42.692;23.312;2022-09-20T03:35:32;2.20;;;2.00;;
11123;SDS011;5616;42.692;23.312;2022-09-20T03:38:20;2.03;;;1.93;;
11123;SDS011;5616;42.692;23.312;2022-09-20T03:41:17;3.17;;;1.83;;
11123;SDS011;5616;42.692;23.312;2022-09-20T03:43:59;1.60;;;1.50;;
11123;SDS011;5616;42.692;23.312;2022-09-20T03:46:37;1.87;;;1.77;;
11123;SDS011;5616;42.692;23.312;2022-09-20T03:52:08;2.23;;;1.90;;
11123;SDS011;5616;42.692;23.312;2022-09-20T03:57:54;2.07;;;1.70;;
11123;SDS011;5616;42.692;23.312;2022-09-20T04:00:36;2.10;;;1.90;;
11123;SDS011;5616;42.692;23.312;2022-09-20T04:03:21;1.60;;;1.50;;
11123;SDS011;5616;42.692;23.312;2022-09-20T04:05:58;4.40;;;1.90;;
11123;SDS011;5616;42.692;23.312;2022-09-20T04:08:44;2.07;;;1.87;;
11123;SDS011;5616;42.692;23.312;2022-09-20T04:11:33;2.63;;;2.00;;
11123;SDS011;5616;42.692;23.312;2022-09-20T04:14:10;2.70;;;2.30;;
11123;SDS011;5616;42.692;23.312;2022-09-20T04:16:45;1.90;;;1.70;;
11123;SDS011;5616;42.692;23.312;2022-09-20T04:19:20;2.83;;;2.23;;
11123;SDS011;5616;42.692;23.312;2022-09-20T04:21:52;4.40;;;2.17;;
11123;SDS011;5616;42.692;23.312;2022-09-20T04:24:22;2.13;;;1.93;;
11123;SDS011;5616;42.692;23.312;2022-09-20T04:26:59;2.13;;;1.93;;
11123;SDS011;5616;42.692;23.312;2022-09-20T04:29:30;2.63;;;1.90;;
11123;SDS011;5616;42.692;23.312;2022-09-20T04:32:06;6.10;;;2.17;;
11123;SDS011;5616;42.692;23.312;2022-09-20T04:34:41;4.37;;;2.70;;
11123;SDS011;5616;42.692;23.312;2022-09-20T04:37:32;2.93;;;2.30;;
11123;SDS011;5616;42.692;23.312;2022-09-20T04:40:05;2.60;;;2.40;;
11123;SDS011;5616;42.692;23.312;2022-09-20T04:49:09;2.73;;;2.50;;
11123;SDS011;5616;42.692;23.312;2022-09-20T04:52:04;5.67;;;2.67;;
11123;SDS011;5616;42.692;23.312;2022-09-20T04:58:06;2.40;;;2.00;;
11123;SDS011;5616;42.692;23.312;2022-09-20T05:01:06;1.93;;;1.80;;
11123;SDS011;5616;42.692;23.312;2022-09-20T05:04:24;1.60;;;1.50;;
11123;SDS011;5616;42.692;23.312;2022-09-20T05:07:27;4.37;;;1.90;;
11123;SDS011;5616;42.692;23.312;2022-09-20T05:10:25;1.93;;;1.80;;
11123;SDS011;5616;42.692;23.312;2022-09-20T05:13:14;2.20;;;2.00;;
11123;SDS011;5616;42.692;23.312;2022-09-20T05:15:55;2.03;;;1.93;;
11123;SDS011;5616;42.692;23.312;2022-09-20T05:21:36;3.47;;;2.80;;
11123;SDS011;5616;42.692;23.312;2022-09-20T05:24:25;4.40;;;3.07;;
11123;SDS011;5616;42.692;23.312;2022-09-20T05:27:05;4.37;;;2.17;;
11123;SDS011;5616;42.692;23.312;2022-09-20T05:29:46;2.43;;;1.87;;
11123;SDS011;5616;42.692;23.312;2022-09-20T05:32:20;2.80;;;2.00;;
11123;SDS011;5616;42.692;23.312;2022-09-20T05:34:53;4.90;;;2.00;;
11123;SDS011;5616;42.692;23.312;2022-09-20T05:37:27;2.03;;;1.83;;
11123;SDS011;5616;42.692;23.312;2022-09-20T05:40:13;2.00;;;1.60;;
11123;SDS011;5616;42.692;23.312;2022-09-20T05:42:48;2.47;;;1.90;;
11123;SDS011;5616;42.692;23.312;2022-09-20T05:45:28;3.43;;;2.87;;
11123;SDS011;5616;42.692;23.312;2022-09-20T05:48:12;19.60;;;8.23;;
11123;SDS011;5616;42.692;23.312;2022-09-20T05:50:45;8.13;;;4.20;;
11123;SDS011;5616;42.692;23.312;2022-09-20T05:53:38;15.60;;;8.20;;
11123;SDS011;5616;42.692;23.312;2022-09-20T05:56:25;9.10;;;4.70;;
11123;SDS011;5616;42.692;23.312;2022-09-20T05:59:04;1.87;;;1.70;;
11123;SDS011;5616;42.692;23.312;2022-09-20T06:01:47;2.23;;;2.03;;
11123;SDS011;5616;42.692;23.312;2022-09-20T06:04:23;10.37;;;4.30;;
11123;SDS011;5616;42.692;23.312;2022-09-20T06:06:59;4.50;;;3.50;;
11123;SDS011;5616;42.692;23.312;2022-09-20T06:12:42;10.10;;;4.80;;
11123;SDS011;5616;42.692;23.312;2022-09-20T06:15:18;15.20;;;8.60;;
11123;SDS011;5616;42.692;23.312;2022-09-20T06:17:54;3.20;;;2.50;;
11123;SDS011;5616;42.692;23.312;2022-09-20T06:20:27;2.10;;;1.90;;
11123;SDS011;5616;42.692;23.312;2022-09-20T06:22:59;2.97;;;2.67;;
11123;SDS011;5616;42.692;23.312;2022-09-20T06:25:31;2.37;;;2.00;;
11123;SDS011;5616;42.692;23.312;2022-09-20T06:28:09;2.10;;;1.57;;
11123;SDS011;5616;42.692;23.312;2022-09-20T06:30:40;2.97;;;2.17;;
11123;SDS011;5616;42.692;23.312;2022-09-20T06:33:13;2.03;;;1.80;;
11123;SDS011;5616;42.692;23.312;2022-09-20T06:35:42;2.07;;;1.53;;
11123;SDS011;5616;42.692;23.312;2022-09-20T06:38:23;5.13;;;2.70;;
11123;SDS011;5616;42.692;23.312;2022-09-20T06:41:20;3.80;;;2.93;;
11123;SDS011;5616;42.692;23.312;2022-09-20T06:43:56;2.07;;;1.60;;
11123;SDS011;5616;42.692;23.312;2022-09-20T06:46:24;2.00;;;1.30;;
11123;SDS011;5616;42.692;23.312;2022-09-20T06:48:52;1.90;;;1.70;;
11123;SDS011;5616;42.692;23.312;2022-09-20T06:51:19;3.20;;;2.03;;
11123;SDS011;5616;42.692;23.312;2022-09-20T06:53:48;6.03;;;4.40;;
11123;SDS011;5616;42.692;23.312;2022-09-20T06:56:16;2.97;;;1.90;;
11123;SDS011;5616;42.692;23.312;2022-09-20T06:58:45;8.47;;;6.33;;
11123;SDS011;5616;42.692;23.312;2022-09-20T07:01:12;6.57;;;4.10;;
11123;SDS011;5616;42.692;23.312;2022-09-20T07:03:39;11.47;;;7.70;;
11123;SDS011;5616;42.692;23.312;2022-09-20T07:06:06;7.40;;;4.90;;
11123;SDS011;5616;42.692;23.312;2022-09-20T07:08:34;4.47;;;3.23;;
11123;SDS011;5616;42.692;23.312;2022-09-20T07:11:06;1.40;;;1.30;;
11123;SDS011;5616;42.692;23.312;2022-09-20T07:13:34;4.83;;;3.40;;
11123;SDS011;5616;42.692;23.312;2022-09-20T07:16:02;1.83;;;1.50;;
11123;SDS011;5616;42.692;23.312;2022-09-20T07:18:30;4.27;;;3.77;;
11123;SDS011;5616;42.692;23.312;2022-09-20T07:20:57;2.03;;;1.70;;
11123;SDS011;5616;42.692;23.312;2022-09-20T07:23:25;5.10;;;3.90;;
11123;SDS011;5616;42.692;23.312;2022-09-20T07:25:52;2.33;;;1.93;;
11123;SDS011;5616;42.692;23.312;2022-09-20T07:28:23;1.80;;;1.40;;
11123;SDS011;5616;42.692;23.312;2022-09-20T07:30:50;3.57;;;2.70;;
11123;SDS011;5616;42.692;23.312;2022-09-20T07:33:17;2.87;;;1.60;;
11123;SDS011;5616;42.692;23.312;2022-09-20T07:35:46;1.83;;;1.63;;
11123;SDS011;5616;42.692;23.312;2022-09-20T07:38:13;3.00;;;2.03;;
11123;SDS011;5616;42.692;23.312;2022-09-20T07:40:41;2.03;;;1.67;;
11123;SDS011;5616;42.692;23.312;2022-09-20T07:43:09;3.33;;;1.60;;
11123;SDS011;5616;42.692;23.312;2022-09-20T07:45:37;3.40;;;1.57;;
11123;SDS011;5616;42.692;23.312;2022-09-20T07:48:04;1.57;;;1.47;;
11123;SDS011;5616;42.692;23.312;2022-09-20T07:50:33;1.90;;;1.70;;
11123;SDS011;5616;42.692;23.312;2022-09-20T07:52:59;1.57;;;1.30;;
11123;SDS011;5616;42.692;23.312;2022-09-20T07:55:27;1.60;;;1.50;;
11123;SDS011;5616;42.692;23.312;2022-09-20T07:57:55;2.37;;;1.80;;
11123;SDS011;5616;42.692;23.312;2022-09-20T08:00:21;3.13;;;2.17;;
11123;SDS011;5616;42.692;23.312;2022-09-20T08:02:57;5.67;;;1.50;;
11123;SDS011;5616;42.692;23.312;2022-09-20T08:05:24;3.93;;;2.00;;
11123;SDS011;5616;42.692;23.312;2022-09-20T08:07:51;2.10;;;1.60;;
11123;SDS011;5616;42.692;23.312;2022-09-20T08:10:18;4.90;;;3.20;;
11123;SDS011;5616;42.692;23.312;2022-09-20T08:12:45;3.00;;;2.50;;
11123;SDS011;5616;42.692;23.312;2022-09-20T08:15:12;3.77;;;2.70;;
11123;SDS011;5616;42.692;23.312;2022-09-20T08:17:39;4.03;;;1.50;;
11123;SDS011;5616;42.692;23.312;2022-09-20T08:20:07;6.00;;;2.20;;
11123;SDS011;5616;42.692;23.312;2022-09-20T08:22:35;6.60;;;1.30;;
11123;SDS011;5616;42.692;23.312;2022-09-20T08:25:03;2.43;;;1.50;;
11123;SDS011;5616;42.692;23.312;2022-09-20T08:27:31;3.40;;;1.70;;
11123;SDS011;5616;42.692;23.312;2022-09-20T08:29:58;2.80;;;1.93;;
11123;SDS011;5616;42.692;23.312;2022-09-20T08:32:25;2.80;;;1.60;;
11123;SDS011;5616;42.692;23.312;2022-09-20T08:34:52;2.27;;;1.20;;
11123;SDS011;5616;42.692;23.312;2022-09-20T08:37:20;1.20;;;1.10;;
11123;SDS011;5616;42.692;23.312;2022-09-20T08:39:47;4.17;;;1.30;;
11123;SDS011;5616;42.692;23.312;2022-09-20T08:42:17;3.73;;;1.40;;
11123;SDS011;5616;42.692;23.312;2022-09-20T08:44:52;1.77;;;1.50;;
11123;SDS011;5616;42.692;23.312;2022-09-20T08:47:24;2.83;;;1.37;;
11123;SDS011;5616;42.692;23.312;2022-09-20T08:49:53;1.27;;;1.10;;
11123;SDS011;5616;42.692;23.312;2022-09-20T08:52:22;1.30;;;1.10;;
11123;SDS011;5616;42.692;23.312;2022-09-20T08:54:54;1.47;;;1.00;;
11123;SDS011;5616;42.692;23.312;2022-09-20T08:57:24;1.00;;;0.80;;
11123;SDS011;5616;42.692;23.312;2022-09-20T08:59:55;1.50;;;1.13;;
11123;SDS011;5616;42.692;23.312;2022-09-20T09:02:23;1.70;;;1.10;;
11123;SDS011;5616;42.692;23.312;2022-09-20T09:04:50;1.40;;;1.20;;
11123;SDS011;5616;42.692;23.312;2022-09-20T09:07:18;1.57;;;1.13;;
11123;SDS011;5616;42.692;23.312;2022-09-20T09:09:48;2.93;;;1.40;;
11123;SDS011;5616;42.692;23.312;2022-09-20T09:12:18;2.37;;;1.00;;
11123;SDS011;5616;42.692;23.312;2022-09-20T09:14:48;1.00;;;1.00;;
11123;SDS011;5616;42.692;23.312;2022-09-20T09:17:20;1.37;;;0.90;;
11123;SDS011;5616;42.692;23.312;2022-09-20T09:19:49;1.03;;;0.87;;
11123;SDS011;5616;42.692;23.312;2022-09-20T09:22:17;1.47;;;1.10;;
11123;SDS011;5616;42.692;23.312;2022-09-20T09:27:33;1.87;;;1.13;;
11123;SDS011;5616;42.692;23.312;2022-09-20T09:30:01;2.07;;;0.90;;
11123;SDS011;5616;42.692;23.312;2022-09-20T09:32:28;1.10;;;1.00;;
11123;SDS011;5616;42.692;23.312;2022-09-20T09:35:13;1.50;;;0.90;;
11123;SDS011;5616;42.692;23.312;2022-09-20T09:37:53;1.70;;;1.40;;
11123;SDS011;5616;42.692;23.312;2022-09-20T09:40:22;2.77;;;1.30;;
11123;SDS011;5616;42.692;23.312;2022-09-20T09:42:50;1.20;;;1.10;;
11123;SDS011;5616;42.692;23.312;2022-09-20T09:45:25;1.80;;;0.87;;
11123;SDS011;5616;42.692;23.312;2022-09-20T09:47:56;0.70;;;0.70;;
11123;SDS011;5616;42.692;23.312;2022-09-20T09:50:26;2.43;;;0.90;;
11123;SDS011;5616;42.692;23.312;2022-09-20T09:52:56;1.27;;;0.90;;
11123;SDS011;5616;42.692;23.312;2022-09-20T09:55:33;0.80;;;0.80;;
11123;SDS011;5616;42.692;23.312;2022-09-20T09:58:11;1.00;;;0.90;;
11123;SDS011;5616;42.692;23.312;2022-09-20T10:00:46;1.10;;;0.90;;
11123;SDS011;5616;42.692;23.312;2022-09-20T10:03:25;4.40;;;1.77;;
11123;SDS011;5616;42.692;23.312;2022-09-20T10:06:06;0.83;;;0.83;;
11123;SDS011;5616;42.692;23.312;2022-09-20T10:08:43;2.30;;;0.97;;
11123;SDS011;5616;42.692;23.312;2022-09-20T10:11:27;1.50;;;0.53;;
11123;SDS011;5616;42.692;23.312;2022-09-20T10:14:05;2.03;;;1.30;;
11123;SDS011;5616;42.692;23.312;2022-09-20T10:16:44;1.57;;;1.03;;
11123;SDS011;5616;42.692;23.312;2022-09-20T10:19:24;1.10;;;1.00;;
11123;SDS011;5616;42.692;23.312;2022-09-20T10:22:03;0.80;;;0.80;;
11123;SDS011;5616;42.692;23.312;2022-09-20T10:24:39;1.30;;;1.00;;
11123;SDS011;5616;42.692;23.312;2022-09-20T10:27:24;1.80;;;0.93;;
11123;SDS011;5616;42.692;23.312;2022-09-20T10:30:01;1.30;;;1.20;;
11123;SDS011;5616;42.692;23.312;2022-09-20T10:35:29;0.70;;;0.50;;
11123;SDS011;5616;42.692;23.312;2022-09-20T10:38:09;1.50;;;0.90;;
11123;SDS011;5616;42.692;23.312;2022-09-20T10:40:40;1.63;;;0.73;;
11123;SDS011;5616;42.692;23.312;2022-09-20T10:43:40;1.23;;;1.13;;
11123;SDS011;5616;42.692;23.312;2022-09-20T10:46:20;1.17;;;0.80;;
11123;SDS011;5616;42.692;23.312;2022-09-20T10:48:58;0.90;;;0.80;;
11123;SDS011;5616;42.692;23.312;2022-09-20T10:51:33;0.80;;;0.80;;
11123;SDS011;5616;42.692;23.312;2022-09-20T10:54:09;1.43;;;1.00;;
11123;SDS011;5616;42.692;23.312;2022-09-20T10:56:51;1.23;;;1.10;;
11123;SDS011;5616;42.692;23.312;2022-09-20T10:59:32;1.07;;;1.07;;
11123;SDS011;5616;42.692;23.312;2022-09-20T11:02:12;1.10;;;1.00;;
11123;SDS011;5616;42.692;23.312;2022-09-20T11:05:00;2.00;;;1.33;;
11123;SDS011;5616;42.692;23.312;2022-09-20T11:07:48;0.80;;;0.80;;
11123;SDS011;5616;42.692;23.312;2022-09-20T11:10:24;1.17;;;1.10;;
11123;SDS011;5616;42.692;23.312;2022-09-20T11:12:56;0.80;;;0.80;;
11123;SDS011;5616;42.692;23.312;2022-09-20T11:15:28;1.40;;;1.30;;
11123;SDS011;5616;42.692;23.312;2022-09-20T11:18:00;1.03;;;1.03;;
11123;SDS011;5616;42.692;23.312;2022-09-20T11:20:32;0.80;;;0.80;;
11123;SDS011;5616;42.692;23.312;2022-09-20T11:23:04;1.00;;;0.97;;
11123;SDS011;5616;42.692;23.312;2022-09-20T11:25:36;1.50;;;1.40;;
11123;SDS011;5616;42.692;23.312;2022-09-20T11:28:08;1.33;;;1.10;;
11123;SDS011;5616;42.692;23.312;2022-09-20T11:30:47;4.10;;;1.60;;
11123;SDS011;5616;42.692;23.312;2022-09-20T11:33:20;0.83;;;0.83;;
11123;SDS011;5616;42.692;23.312;2022-09-20T11:35:52;1.17;;;1.07;;
11123;SDS011;5616;42.692;23.312;2022-09-20T11:38:24;1.00;;;0.90;;
11123;SDS011;5616;42.692;23.312;2022-09-20T11:40:58;1.13;;;1.03;;
11123;SDS011;5616;42.692;23.312;2022-09-20T11:43:27;2.93;;;1.00;;
11123;SDS011;5616;42.692;23.312;2022-09-20T11:45:57;1.07;;;0.97;;
11123;SDS011;5616;42.692;23.312;2022-09-20T11:48:28;0.97;;;0.87;;
11123;SDS011;5616;42.692;23.312;2022-09-20T11:51:07;0.80;;;0.80;;
11123;SDS011;5616;42.692;23.312;2022-09-20T11:53:53;1.70;;;1.10;;
11123;SDS011;5616;42.692;23.312;2022-09-20T11:56:33;0.90;;;0.87;;
11123;SDS011;5616;42.692;23.312;2022-09-20T11:59:00;0.90;;;0.90;;
11123;SDS011;5616;42.692;23.312;2022-09-20T12:01:33;1.80;;;1.13;;
11123;SDS011;5616;42.692;23.312;2022-09-20T12:04:02;0.90;;;0.90;;
11123;SDS011;5616;42.692;23.312;2022-09-20T12:06:37;0.70;;;0.70;;
11123;SDS011;5616;42.692;23.312;2022-09-20T12:09:20;0.83;;;0.83;;
11123;SDS011;5616;42.692;23.312;2022-09-20T12:11:50;4.63;;;1.00;;
11123;SDS011;5616;42.692;23.312;2022-09-20T12:14:18;0.80;;;0.80;;
11123;SDS011;5616;42.692;23.312;2022-09-20T12:16:50;1.20;;;1.10;;
11123;SDS011;5616;42.692;23.312;2022-09-20T12:22:16;1.53;;;1.20;;
11123;SDS011;5616;42.692;23.312;2022-09-20T12:28:01;1.53;;;1.00;;
11123;SDS011;5616;42.692;23.312;2022-09-20T12:30:29;1.43;;;0.83;;
11123;SDS011;5616;42.692;23.312;2022-09-20T12:32:59;0.90;;;0.90;;
11123;SDS011;5616;42.692;23.312;2022-09-20T12:38:28;1.20;;;1.10;;
11123;SDS011;5616;42.692;23.312;2022-09-20T12:41:13;0.60;;;0.60;;
11123;SDS011;5616;42.692;23.312;2022-09-20T12:43:47;0.90;;;0.90;;
11123;SDS011;5616;42.692;23.312;2022-09-20T12:46:20;0.90;;;0.90;;
11123;SDS011;5616;42.692;23.312;2022-09-20T12:48:58;3.13;;;0.97;;
11123;SDS011;5616;42.692;23.312;2022-09-20T12:52:03;0.70;;;0.70;;
11123;SDS011;5616;42.692;23.312;2022-09-20T12:54:49;2.37;;;0.83;;
11123;SDS011;5616;42.692;23.312;2022-09-20T12:57:24;0.97;;;0.90;;
11123;SDS011;5616;42.692;23.312;2022-09-20T12:59:56;2.80;;;1.03;;
11123;SDS011;5616;42.692;23.312;2022-09-20T13:02:40;1.50;;;1.30;;
11123;SDS011;5616;42.692;23.312;2022-09-20T13:07:59;0.70;;;0.70;;
11123;SDS011;5616;42.692;23.312;2022-09-20T13:10:31;1.93;;;1.17;;
11123;SDS011;5616;42.692;23.312;2022-09-20T13:13:10;0.90;;;0.90;;
11123;SDS011;5616;42.692;23.312;2022-09-20T13:15:46;0.90;;;0.90;;
11123;SDS011;5616;42.692;23.312;2022-09-20T13:18:15;1.60;;;1.20;;
11123;SDS011;5616;42.692;23.312;2022-09-20T13:20:45;1.47;;;0.90;;
11123;SDS011;5616;42.692;23.312;2022-09-20T13:23:15;1.03;;;0.70;;
11123;SDS011;5616;42.692;23.312;2022-09-20T13:25:46;2.97;;;0.87;;
11123;SDS011;5616;42.692;23.312;2022-09-20T13:28:17;0.83;;;0.70;;
11123;SDS011;5616;42.692;23.312;2022-09-20T13:36:47;1.20;;;0.90;;
11123;SDS011;5616;42.692;23.312;2022-09-20T13:39:21;1.67;;;1.57;;
11123;SDS011;5616;42.692;23.312;2022-09-20T13:41:51;0.87;;;0.87;;
11123;SDS011;5616;42.692;23.312;2022-09-20T13:44:18;1.20;;;1.10;;
11123;SDS011;5616;42.692;23.312;2022-09-20T13:46:45;1.87;;;1.23;;
11123;SDS011;5616;42.692;23.312;2022-09-20T13:49:13;1.00;;;0.90;;
11123;SDS011;5616;42.692;23.312;2022-09-20T13:51:45;1.60;;;1.00;;
11123;SDS011;5616;42.692;23.312;2022-09-20T13:54:18;1.53;;;0.90;;
11123;SDS011;5616;42.692;23.312;2022-09-20T13:56:49;0.80;;;0.80;;
11123;SDS011;5616;42.692;23.312;2022-09-20T13:59:17;0.80;;;0.80;;
11123;SDS011;5616;42.692;23.312;2022-09-20T14:01:47;0.53;;;0.53;;
11123;SDS011;5616;42.692;23.312;2022-09-20T14:04:16;1.07;;;0.97;;
11123;SDS011;5616;42.692;23.312;2022-09-20T14:06:47;3.30;;;0.80;;
11123;SDS011;5616;42.692;23.312;2022-09-20T14:09:19;0.97;;;0.90;;
11123;SDS011;5616;42.692;23.312;2022-09-20T14:11:50;0.87;;;0.80;;
11123;SDS011;5616;42.692;23.312;2022-09-20T14:14:18;1.00;;;0.90;;
11123;SDS011;5616;42.692;23.312;2022-09-20T14:16:47;1.60;;;0.90;;
11123;SDS011;5616;42.692;23.312;2022-09-20T14:19:16;1.40;;;1.07;;
11123;SDS011;5616;42.692;23.312;2022-09-20T14:21:45;0.83;;;0.70;;
11123;SDS011;5616;42.692;23.312;2022-09-20T14:24:25;1.70;;;1.20;;
11123;SDS011;5616;42.692;23.312;2022-09-20T14:29:46;0.73;;;0.70;;
11123;SDS011;5616;42.692;23.312;2022-09-20T14:32:20;1.50;;;0.80;;
11123;SDS011;5616;42.692;23.312;2022-09-20T14:34:57;2.50;;;1.10;;
11123;SDS011;5616;42.692;23.312;2022-09-20T14:37:27;0.90;;;0.80;;
11123;SDS011;5616;42.692;23.312;2022-09-20T14:40:00;0.70;;;0.60;;
11123;SDS011;5616;42.692;23.312;2022-09-20T14:42:29;1.63;;;1.10;;
11123;SDS011;5616;42.692;23.312;2022-09-20T14:45:00;1.23;;;1.00;;
11123;SDS011;5616;42.692;23.312;2022-09-20T14:47:34;3.20;;;1.13;;
11123;SDS011;5616;42.692;23.312;2022-09-20T14:50:03;2.00;;;1.80;;
11123;SDS011;5616;42.692;23.312;2022-09-20T14:52:37;1.87;;;1.40;;
11123;SDS011;5616;42.692;23.312;2022-09-20T14:55:18;1.20;;;1.07;;
11123;SDS011;5616;42.692;23.312;2022-09-20T14:57:54;1.20;;;1.10;;
11123;SDS011;5616;42.692;23.312;2022-09-20T15:00:23;1.00;;;0.90;;
11123;SDS011;5616;42.692;23.312;2022-09-20T15:02:51;1.80;;;1.20;;
11123;SDS011;5616;42.692;23.312;2022-09-20T15:05:19;1.20;;;0.80;;
11123;SDS011;5616;42.692;23.312;2022-09-20T15:07:50;1.37;;;0.93;;
11123;SDS011;5616;42.692;23.312;2022-09-20T15:10:18;2.87;;;1.00;;
11123;SDS011;5616;42.692;23.312;2022-09-20T15:12:45;0.80;;;0.80;;
11123;SDS011;5616;42.692;23.312;2022-09-20T15:15:13;2.93;;;1.30;;
11123;SDS011;5616;42.692;23.312;2022-09-20T15:17:41;1.23;;;1.00;;
11123;SDS011;5616;42.692;23.312;2022-09-20T15:20:12;3.33;;;0.90;;
11123;SDS011;5616;42.692;23.312;2022-09-20T15:22:42;1.30;;;1.00;;
11123;SDS011;5616;42.692;23.312;2022-09-20T15:25:13;1.20;;;1.10;;
11123;SDS011;5616;42.692;23.312;2022-09-20T15:27:43;1.17;;;1.07;;
11123;SDS011;5616;42.692;23.312;2022-09-20T15:30:12;2.27;;;1.30;;
11123;SDS011;5616;42.692;23.312;2022-09-20T15:32:41;4.23;;;1.17;;
11123;SDS011;5616;42.692;23.312;2022-09-20T15:35:08;0.90;;;0.90;;
11123;SDS011;5616;42.692;23.312;2022-09-20T15:37:36;0.87;;;0.87;;
11123;SDS011;5616;42.692;23.312;2022-09-20T15:40:03;1.30;;;1.10;;
11123;SDS011;5616;42.692;23.312;2022-09-20T15:42:31;1.10;;;1.00;;
11123;SDS011;5616;42.692;23.312;2022-09-20T15:45:05;1.80;;;1.50;;
11123;SDS011;5616;42.692;23.312;2022-09-20T15:47:34;7.17;;;1.97;;
11123;SDS011;5616;42.692;23.312;2022-09-20T15:50:02;1.90;;;1.50;;
11123;SDS011;5616;42.692;23.312;2022-09-20T15:52:33;1.13;;;1.03;;
11123;SDS011;5616;42.692;23.312;2022-09-20T15:55:01;1.20;;;1.10;;
11123;SDS011;5616;42.692;23.312;2022-09-20T15:57:29;1.40;;;1.30;;
11123;SDS011;5616;42.692;23.312;2022-09-20T15:59:56;1.40;;;1.30;;
11123;SDS011;5616;42.692;23.312;2022-09-20T16:02:25;1.30;;;1.20;;
11123;SDS011;5616;42.692;23.312;2022-09-20T16:04:53;1.30;;;1.20;;
11123;SDS011;5616;42.692;23.312;2022-09-20T16:07:20;1.67;;;1.50;;
11123;SDS011;5616;42.692;23.312;2022-09-20T16:09:51;2.83;;;1.60;;
11123;SDS011;5616;42.692;23.312;2022-09-20T16:12:18;2.00;;;1.50;;
11123;SDS011;5616;42.692;23.312;2022-09-20T16:14:45;3.07;;;2.00;;
11123;SDS011;5616;42.692;23.312;2022-09-20T16:17:12;3.70;;;1.70;;
11123;SDS011;5616;42.692;23.312;2022-09-20T16:19:40;4.07;;;1.83;;
11123;SDS011;5616;42.692;23.312;2022-09-20T16:22:06;1.80;;;1.70;;
11123;SDS011;5616;42.692;23.312;2022-09-20T16:24:34;2.67;;;2.07;;
11123;SDS011;5616;42.692;23.312;2022-09-20T16:27:02;3.80;;;2.00;;
11123;SDS011;5616;42.692;23.312;2022-09-20T16:29:31;5.37;;;2.33;;